This is the latest recevied weather packets stored in our database for station/object W9KHP-1. If no packets are shown the sender has not sent any weather packets the latest 10 day(s).
| Time | Temp. | Humidity | Pressure | Rain* | Wind** | Luminosity | Snow |
|---|---|---|---|---|---|---|---|
| 1777932323 | 25.56° C | 46% | 1009.9 hPa | 0 mm | - | 112 W/m² | - |
| 1777932020 | 25.56° C | 47% | 1009.8 hPa | 0 mm | - | 112 W/m² | - |
| 1777931716 | 25.56° C | 44% | 1009.8 hPa | 0 mm | - | 113 W/m² | - |
| 1777931414 | 25.56° C | 43% | 1009.9 hPa | 0 mm | - | 111 W/m² | - |
| 1777931110 | 25.56° C | 44% | 1010 hPa | 0 mm | - | 109 W/m² | - |
| 1777930806 | 25.56° C | 43% | 1009.8 hPa | 0 mm | - | 130 W/m² | - |
| 1777930502 | 25.56° C | 44% | 1009.9 hPa | 0 mm | - | 141 W/m² | - |
| 1777930200 | 25.56° C | 46% | 1009.7 hPa | 0 mm | - | 140 W/m² | - |
| 1777929896 | 25.56° C | 45% | 1009.8 hPa | 0 mm | - | 137 W/m² | - |
| 1777929594 | 25.56° C | 46% | 1009.9 hPa | 0 mm | - | 194 W/m² | - |
| 1777929289 | 25.56° C | 45% | 1009.7 hPa | 0 mm | - | 158 W/m² | - |
| 1777928987 | 25.56° C | 44% | 1010 hPa | 0 mm | - | 209 W/m² | - |
| 1777928684 | 25.56° C | 48% | 1009.9 hPa | 0 mm | - | 186 W/m² | - |
| 1777928381 | 26.11° C | 45% | 1009.7 hPa | 0 mm | - | 154 W/m² | - |
| 1777928078 | 26.11° C | 47% | 1009.7 hPa | 0 mm | - | 170 W/m² | - |
| 1777927777 | 26.67° C | 47% | 1009.8 hPa | 0 mm | - | 363 W/m² | - |
| 1777927475 | 26.67° C | 47% | 1009.8 hPa | 0 mm | - | 373 W/m² | - |
| 1777927174 | 26.67° C | 46% | 1009.8 hPa | 0 mm | - | 484 W/m² | - |
| 1777926871 | 26.11° C | 46% | 1010.2 hPa | 0 mm | - | 557 W/m² | - |
| 1777926567 | 25.56° C | 47% | 1010 hPa | 0 mm | - | 234 W/m² | - |
| 1777926263 | 26.11° C | 46% | 1009.9 hPa | 0 mm | - | 210 W/m² | - |
| 1777925960 | 26.11° C | 45% | 1010 hPa | 0 mm | - | 266 W/m² | - |
| 1777925658 | 26.67° C | 46% | 1010 hPa | 0 mm | - | 323 W/m² | - |
| 1777925355 | 26.67° C | 45% | 1010 hPa | 0 mm | - | 275 W/m² | - |
| 1777925051 | 27.22° C | 49% | 1010 hPa | 0 mm | - | 452 W/m² | - |
* Rain latest hour (hover to see other rain measurements)
** Current wind speed in m/s (hover to see current wind gust speed)